sensor_id;sensor_type;location;lat;lon;timestamp;temperature;humidity
56771;DHT22;42641;59.794;17.616;2024-01-15T00:00:56;-2.20;99.90
56771;DHT22;42641;59.794;17.616;2024-01-15T00:03:22;-2.20;99.90
56771;DHT22;42641;59.794;17.616;2024-01-15T00:05:49;-2.20;99.90
56771;DHT22;42641;59.794;17.616;2024-01-15T00:08:15;-2.20;99.90
56771;DHT22;42641;59.794;17.616;2024-01-15T00:10:42;-2.20;99.90
56771;DHT22;42641;59.794;17.616;2024-01-15T00:13:08;-2.30;99.90
56771;DHT22;42641;59.794;17.616;2024-01-15T00:15:35;-2.20;99.90
56771;DHT22;42641;59.794;17.616;2024-01-15T00:18:01;-2.30;99.90
56771;DHT22;42641;59.794;17.616;2024-01-15T00:20:28;-2.30;99.90
56771;DHT22;42641;59.794;17.616;2024-01-15T00:22:54;-2.20;99.90
56771;DHT22;42641;59.794;17.616;2024-01-15T00:25:21;-2.20;99.90
56771;DHT22;42641;59.794;17.616;2024-01-15T00:27:47;-2.20;99.90
56771;DHT22;42641;59.794;17.616;2024-01-15T00:30:14;-2.30;99.90
56771;DHT22;42641;59.794;17.616;2024-01-15T00:32:40;-2.30;99.90
56771;DHT22;42641;59.794;17.616;2024-01-15T00:35:07;-2.30;99.90
56771;DHT22;42641;59.794;17.616;2024-01-15T00:37:34;-2.20;99.90
56771;DHT22;42641;59.794;17.616;2024-01-15T00:40:00;-2.30;99.90
56771;DHT22;42641;59.794;17.616;2024-01-15T00:42:27;-2.30;99.90
56771;DHT22;42641;59.794;17.616;2024-01-15T00:44:53;-2.30;99.90
56771;DHT22;42641;59.794;17.616;2024-01-15T00:47:20;-2.30;99.90
56771;DHT22;42641;59.794;17.616;2024-01-15T00:49:46;-2.40;99.90
56771;DHT22;42641;59.794;17.616;2024-01-15T00:52:13;-2.40;99.90
56771;DHT22;42641;59.794;17.616;2024-01-15T00:54:39;-2.40;99.90
56771;DHT22;42641;59.794;17.616;2024-01-15T00:57:06;-2.40;99.90
56771;DHT22;42641;59.794;17.616;2024-01-15T00:59:32;-2.40;99.90
56771;DHT22;42641;59.794;17.616;2024-01-15T01:01:59;-2.50;99.90
56771;DHT22;42641;59.794;17.616;2024-01-15T01:04:25;-2.50;99.90
56771;DHT22;42641;59.794;17.616;2024-01-15T01:06:51;-2.50;99.90
56771;DHT22;42641;59.794;17.616;2024-01-15T01:09:18;-2.50;99.90
56771;DHT22;42641;59.794;17.616;2024-01-15T01:11:44;-2.50;99.90
56771;DHT22;42641;59.794;17.616;2024-01-15T01:14:11;-2.50;99.90
56771;DHT22;42641;59.794;17.616;2024-01-15T01:16:38;-2.50;99.90
56771;DHT22;42641;59.794;17.616;2024-01-15T01:19:06;-2.50;99.90
56771;DHT22;42641;59.794;17.616;2024-01-15T01:21:33;-2.60;99.90
56771;DHT22;42641;59.794;17.616;2024-01-15T01:24:00;-2.60;99.90
56771;DHT22;42641;59.794;17.616;2024-01-15T01:26:26;-2.70;99.90
56771;DHT22;42641;59.794;17.616;2024-01-15T01:28:53;-2.60;99.90
56771;DHT22;42641;59.794;17.616;2024-01-15T01:31:19;-2.70;99.90
56771;DHT22;42641;59.794;17.616;2024-01-15T01:33:45;-2.80;99.90
56771;DHT22;42641;59.794;17.616;2024-01-15T01:36:12;-2.80;99.90
56771;DHT22;42641;59.794;17.616;2024-01-15T01:38:40;-2.70;99.90
56771;DHT22;42641;59.794;17.616;2024-01-15T01:41:06;-2.80;99.90
56771;DHT22;42641;59.794;17.616;2024-01-15T01:43:33;-2.80;99.90
56771;DHT22;42641;59.794;17.616;2024-01-15T01:46:00;-2.80;99.90
56771;DHT22;42641;59.794;17.616;2024-01-15T01:48:27;-2.80;99.90
56771;DHT22;42641;59.794;17.616;2024-01-15T01:50:56;-2.80;99.90
56771;DHT22;42641;59.794;17.616;2024-01-15T01:53:25;-2.90;99.90
56771;DHT22;42641;59.794;17.616;2024-01-15T01:55:53;-2.90;99.90
56771;DHT22;42641;59.794;17.616;2024-01-15T01:58:20;-2.80;99.90
56771;DHT22;42641;59.794;17.616;2024-01-15T02:00:47;-2.90;99.90
56771;DHT22;42641;59.794;17.616;2024-01-15T02:03:14;-2.90;99.90
56771;DHT22;42641;59.794;17.616;2024-01-15T02:05:41;-2.90;99.90
56771;DHT22;42641;59.794;17.616;2024-01-15T02:08:08;-2.90;99.90
56771;DHT22;42641;59.794;17.616;2024-01-15T02:10:35;-2.90;99.90
56771;DHT22;42641;59.794;17.616;2024-01-15T02:13:01;-2.80;99.90
56771;DHT22;42641;59.794;17.616;2024-01-15T02:15:28;-2.90;99.90
56771;DHT22;42641;59.794;17.616;2024-01-15T02:18:04;-2.90;99.90
56771;DHT22;42641;59.794;17.616;2024-01-15T02:20:32;-3.00;99.90
56771;DHT22;42641;59.794;17.616;2024-01-15T02:23:07;-3.00;99.90
56771;DHT22;42641;59.794;17.616;2024-01-15T02:25:37;-3.00;99.90
56771;DHT22;42641;59.794;17.616;2024-01-15T02:28:04;-3.10;99.90
56771;DHT22;42641;59.794;17.616;2024-01-15T02:30:31;-3.10;99.90
56771;DHT22;42641;59.794;17.616;2024-01-15T02:32:58;-3.10;99.90
56771;DHT22;42641;59.794;17.616;2024-01-15T02:35:25;-3.10;99.90
56771;DHT22;42641;59.794;17.616;2024-01-15T02:37:51;-3.10;99.90
56771;DHT22;42641;59.794;17.616;2024-01-15T02:40:17;-3.10;99.90
56771;DHT22;42641;59.794;17.616;2024-01-15T02:42:44;-3.10;99.90
56771;DHT22;42641;59.794;17.616;2024-01-15T02:45:10;-3.10;99.90
56771;DHT22;42641;59.794;17.616;2024-01-15T02:47:36;-3.10;99.90
56771;DHT22;42641;59.794;17.616;2024-01-15T02:50:03;-3.10;99.90
56771;DHT22;42641;59.794;17.616;2024-01-15T02:52:30;-3.20;99.90
56771;DHT22;42641;59.794;17.616;2024-01-15T02:54:56;-3.10;99.90
56771;DHT22;42641;59.794;17.616;2024-01-15T02:57:23;-3.20;99.90
56771;DHT22;42641;59.794;17.616;2024-01-15T02:59:49;-3.20;99.90
56771;DHT22;42641;59.794;17.616;2024-01-15T03:02:15;-3.10;99.90
56771;DHT22;42641;59.794;17.616;2024-01-15T03:04:45;-3.20;99.90
56771;DHT22;42641;59.794;17.616;2024-01-15T03:07:12;-3.20;99.90
56771;DHT22;42641;59.794;17.616;2024-01-15T03:09:38;-3.20;99.90
56771;DHT22;42641;59.794;17.616;2024-01-15T03:12:05;-3.20;99.90
56771;DHT22;42641;59.794;17.616;2024-01-15T03:14:32;-3.30;99.90
56771;DHT22;42641;59.794;17.616;2024-01-15T03:16:58;-3.20;99.90
56771;DHT22;42641;59.794;17.616;2024-01-15T03:19:24;-3.20;99.90
56771;DHT22;42641;59.794;17.616;2024-01-15T03:21:51;-3.20;99.90
56771;DHT22;42641;59.794;17.616;2024-01-15T03:24:17;-3.30;99.90
56771;DHT22;42641;59.794;17.616;2024-01-15T03:26:44;-3.20;99.90
56771;DHT22;42641;59.794;17.616;2024-01-15T03:29:10;-3.30;99.90
56771;DHT22;42641;59.794;17.616;2024-01-15T03:31:36;-3.20;99.90
56771;DHT22;42641;59.794;17.616;2024-01-15T03:34:03;-3.30;99.90
56771;DHT22;42641;59.794;17.616;2024-01-15T03:36:29;-3.40;99.90
56771;DHT22;42641;59.794;17.616;2024-01-15T03:38:56;-3.30;99.90
56771;DHT22;42641;59.794;17.616;2024-01-15T03:41:22;-3.30;99.90
56771;DHT22;42641;59.794;17.616;2024-01-15T03:43:48;-3.30;99.90
56771;DHT22;42641;59.794;17.616;2024-01-15T03:46:15;-3.30;99.90
56771;DHT22;42641;59.794;17.616;2024-01-15T03:48:41;-3.30;99.90
56771;DHT22;42641;59.794;17.616;2024-01-15T03:51:08;-3.40;99.90
56771;DHT22;42641;59.794;17.616;2024-01-15T03:53:34;-3.40;99.90
56771;DHT22;42641;59.794;17.616;2024-01-15T03:56:00;-3.40;99.90
56771;DHT22;42641;59.794;17.616;2024-01-15T03:58:27;-3.40;99.90
56771;DHT22;42641;59.794;17.616;2024-01-15T04:00:53;-3.40;99.90
56771;DHT22;42641;59.794;17.616;2024-01-15T04:03:19;-3.40;99.90
56771;DHT22;42641;59.794;17.616;2024-01-15T04:05:46;-3.40;99.90
56771;DHT22;42641;59.794;17.616;2024-01-15T04:08:12;-3.40;99.90
56771;DHT22;42641;59.794;17.616;2024-01-15T04:10:39;-3.50;99.90
56771;DHT22;42641;59.794;17.616;2024-01-15T04:13:05;-3.40;99.90
56771;DHT22;42641;59.794;17.616;2024-01-15T04:15:31;-3.50;99.90
56771;DHT22;42641;59.794;17.616;2024-01-15T04:17:58;-3.50;99.90
56771;DHT22;42641;59.794;17.616;2024-01-15T04:20:25;-3.50;99.90
56771;DHT22;42641;59.794;17.616;2024-01-15T04:22:52;-3.50;99.90
56771;DHT22;42641;59.794;17.616;2024-01-15T04:25:18;-3.50;99.90
56771;DHT22;42641;59.794;17.616;2024-01-15T04:27:45;-3.50;99.90
56771;DHT22;42641;59.794;17.616;2024-01-15T04:30:11;-3.50;99.90
56771;DHT22;42641;59.794;17.616;2024-01-15T04:32:38;-3.50;99.90
56771;DHT22;42641;59.794;17.616;2024-01-15T04:35:04;-3.50;99.90
56771;DHT22;42641;59.794;17.616;2024-01-15T04:37:31;-3.50;99.90
56771;DHT22;42641;59.794;17.616;2024-01-15T04:39:57;-3.50;99.90
56771;DHT22;42641;59.794;17.616;2024-01-15T04:42:23;-3.50;99.90
56771;DHT22;42641;59.794;17.616;2024-01-15T04:44:50;-3.50;99.90
56771;DHT22;42641;59.794;17.616;2024-01-15T04:47:16;-3.50;99.90
56771;DHT22;42641;59.794;17.616;2024-01-15T04:49:43;-3.60;99.90
56771;DHT22;42641;59.794;17.616;2024-01-15T04:52:10;-3.60;99.90
56771;DHT22;42641;59.794;17.616;2024-01-15T04:54:36;-3.60;99.90
56771;DHT22;42641;59.794;17.616;2024-01-15T04:57:03;-3.60;99.90
56771;DHT22;42641;59.794;17.616;2024-01-15T04:59:29;-3.60;99.90
56771;DHT22;42641;59.794;17.616;2024-01-15T05:01:57;-3.60;99.90
56771;DHT22;42641;59.794;17.616;2024-01-15T05:04:23;-3.60;99.90
56771;DHT22;42641;59.794;17.616;2024-01-15T05:06:51;-3.60;99.90
56771;DHT22;42641;59.794;17.616;2024-01-15T05:09:17;-3.60;99.90
56771;DHT22;42641;59.794;17.616;2024-01-15T05:11:44;-3.60;99.90
56771;DHT22;42641;59.794;17.616;2024-01-15T05:14:10;-3.60;99.90
56771;DHT22;42641;59.794;17.616;2024-01-15T05:16:46;-3.70;99.90
56771;DHT22;42641;59.794;17.616;2024-01-15T05:19:13;-3.60;99.90
56771;DHT22;42641;59.794;17.616;2024-01-15T05:21:39;-3.60;99.90
56771;DHT22;42641;59.794;17.616;2024-01-15T05:24:06;-3.60;99.90
56771;DHT22;42641;59.794;17.616;2024-01-15T05:26:32;-3.60;99.90
56771;DHT22;42641;59.794;17.616;2024-01-15T05:28:59;-3.60;99.90
56771;DHT22;42641;59.794;17.616;2024-01-15T05:31:26;-3.60;99.90
56771;DHT22;42641;59.794;17.616;2024-01-15T05:33:52;-3.60;99.90
56771;DHT22;42641;59.794;17.616;2024-01-15T05:36:19;-3.60;99.90
56771;DHT22;42641;59.794;17.616;2024-01-15T05:38:46;-3.60;99.90
56771;DHT22;42641;59.794;17.616;2024-01-15T05:41:12;-3.60;99.90
56771;DHT22;42641;59.794;17.616;2024-01-15T05:43:39;-3.60;99.90
56771;DHT22;42641;59.794;17.616;2024-01-15T05:46:05;-3.60;99.90
56771;DHT22;42641;59.794;17.616;2024-01-15T05:48:32;-3.60;99.90
56771;DHT22;42641;59.794;17.616;2024-01-15T05:50:58;-3.70;99.90
56771;DHT22;42641;59.794;17.616;2024-01-15T05:53:25;-3.70;99.90
56771;DHT22;42641;59.794;17.616;2024-01-15T05:55:51;-3.70;99.90
56771;DHT22;42641;59.794;17.616;2024-01-15T05:58:17;-3.70;99.90
56771;DHT22;42641;59.794;17.616;2024-01-15T06:00:44;-3.70;99.90
56771;DHT22;42641;59.794;17.616;2024-01-15T06:03:11;-3.70;99.90
56771;DHT22;42641;59.794;17.616;2024-01-15T06:05:38;-3.70;99.90
56771;DHT22;42641;59.794;17.616;2024-01-15T06:08:04;-3.70;99.90
56771;DHT22;42641;59.794;17.616;2024-01-15T06:10:31;-3.70;99.90
56771;DHT22;42641;59.794;17.616;2024-01-15T06:12:57;-3.70;99.90
56771;DHT22;42641;59.794;17.616;2024-01-15T06:15:24;-3.70;99.90
56771;DHT22;42641;59.794;17.616;2024-01-15T06:17:50;-3.70;99.90
56771;DHT22;42641;59.794;17.616;2024-01-15T06:20:17;-3.70;99.90
56771;DHT22;42641;59.794;17.616;2024-01-15T06:22:43;-3.70;99.90
56771;DHT22;42641;59.794;17.616;2024-01-15T06:25:10;-3.70;99.90
56771;DHT22;42641;59.794;17.616;2024-01-15T06:27:36;-3.70;99.90
56771;DHT22;42641;59.794;17.616;2024-01-15T06:30:03;-3.70;99.90
56771;DHT22;42641;59.794;17.616;2024-01-15T06:32:30;-3.70;99.90
56771;DHT22;42641;59.794;17.616;2024-01-15T06:34:57;-3.70;99.90
56771;DHT22;42641;59.794;17.616;2024-01-15T06:37:23;-3.70;99.90
56771;DHT22;42641;59.794;17.616;2024-01-15T06:39:50;-3.70;99.90
56771;DHT22;42641;59.794;17.616;2024-01-15T06:42:16;-3.70;99.90
56771;DHT22;42641;59.794;17.616;2024-01-15T06:44:43;-3.70;99.90
56771;DHT22;42641;59.794;17.616;2024-01-15T06:47:09;-3.70;99.90
56771;DHT22;42641;59.794;17.616;2024-01-15T06:49:35;-3.70;99.90
56771;DHT22;42641;59.794;17.616;2024-01-15T06:52:02;-3.70;99.90
56771;DHT22;42641;59.794;17.616;2024-01-15T06:54:28;-3.80;99.90
56771;DHT22;42641;59.794;17.616;2024-01-15T06:56:55;-3.80;99.90
56771;DHT22;42641;59.794;17.616;2024-01-15T06:59:21;-3.80;99.90
56771;DHT22;42641;59.794;17.616;2024-01-15T07:01:48;-3.70;99.90
56771;DHT22;42641;59.794;17.616;2024-01-15T07:04:14;-3.70;99.90
56771;DHT22;42641;59.794;17.616;2024-01-15T07:06:41;-3.70;99.90
56771;DHT22;42641;59.794;17.616;2024-01-15T07:09:07;-3.80;99.90
56771;DHT22;42641;59.794;17.616;2024-01-15T07:11:35;-3.70;99.90
56771;DHT22;42641;59.794;17.616;2024-01-15T07:14:01;-3.70;99.90
56771;DHT22;42641;59.794;17.616;2024-01-15T07:16:27;-3.80;99.90
56771;DHT22;42641;59.794;17.616;2024-01-15T07:18:54;-3.80;99.90
56771;DHT22;42641;59.794;17.616;2024-01-15T07:21:20;-3.80;99.90
56771;DHT22;42641;59.794;17.616;2024-01-15T07:23:47;-3.80;99.90
56771;DHT22;42641;59.794;17.616;2024-01-15T07:26:13;-3.80;99.90
56771;DHT22;42641;59.794;17.616;2024-01-15T07:28:40;-3.70;99.90
56771;DHT22;42641;59.794;17.616;2024-01-15T07:31:06;-3.70;99.90
56771;DHT22;42641;59.794;17.616;2024-01-15T07:33:33;-3.70;99.90
56771;DHT22;42641;59.794;17.616;2024-01-15T07:35:59;-3.80;99.90
56771;DHT22;42641;59.794;17.616;2024-01-15T07:38:26;-3.70;99.90
56771;DHT22;42641;59.794;17.616;2024-01-15T07:40:52;-3.80;99.90
56771;DHT22;42641;59.794;17.616;2024-01-15T07:43:20;-3.80;99.90
56771;DHT22;42641;59.794;17.616;2024-01-15T07:45:46;-3.80;99.90
56771;DHT22;42641;59.794;17.616;2024-01-15T07:48:12;-3.80;99.90
56771;DHT22;42641;59.794;17.616;2024-01-15T07:50:39;-3.80;99.90
56771;DHT22;42641;59.794;17.616;2024-01-15T07:53:05;-3.80;99.90
56771;DHT22;42641;59.794;17.616;2024-01-15T07:55:31;-3.80;99.90
56771;DHT22;42641;59.794;17.616;2024-01-15T07:57:58;-3.80;99.90
56771;DHT22;42641;59.794;17.616;2024-01-15T08:00:25;-3.80;99.90
56771;DHT22;42641;59.794;17.616;2024-01-15T08:02:52;-3.70;99.90
56771;DHT22;42641;59.794;17.616;2024-01-15T08:05:19;-3.80;99.90
56771;DHT22;42641;59.794;17.616;2024-01-15T08:07:47;-3.70;99.90
56771;DHT22;42641;59.794;17.616;2024-01-15T08:10:14;-3.70;99.90
56771;DHT22;42641;59.794;17.616;2024-01-15T08:12:40;-3.70;99.90
56771;DHT22;42641;59.794;17.616;2024-01-15T08:15:07;-3.70;99.90
56771;DHT22;42641;59.794;17.616;2024-01-15T08:17:33;-3.70;99.90
56771;DHT22;42641;59.794;17.616;2024-01-15T08:19:59;-3.70;99.90
56771;DHT22;42641;59.794;17.616;2024-01-15T08:22:27;-3.70;99.90
56771;DHT22;42641;59.794;17.616;2024-01-15T08:24:53;-3.70;99.90
56771;DHT22;42641;59.794;17.616;2024-01-15T08:27:21;-3.60;99.90
56771;DHT22;42641;59.794;17.616;2024-01-15T08:29:47;-3.70;99.90
56771;DHT22;42641;59.794;17.616;2024-01-15T08:32:14;-3.70;99.90
56771;DHT22;42641;59.794;17.616;2024-01-15T08:34:41;-3.70;99.90
56771;DHT22;42641;59.794;17.616;2024-01-15T08:37:09;-3.70;99.90
56771;DHT22;42641;59.794;17.616;2024-01-15T08:39:35;-3.80;99.90
56771;DHT22;42641;59.794;17.616;2024-01-15T08:42:05;-3.70;99.90
56771;DHT22;42641;59.794;17.616;2024-01-15T08:44:31;-3.70;99.90
56771;DHT22;42641;59.794;17.616;2024-01-15T08:46:58;-3.70;99.90
56771;DHT22;42641;59.794;17.616;2024-01-15T08:49:24;-3.70;99.90
56771;DHT22;42641;59.794;17.616;2024-01-15T08:51:51;-3.70;99.90
56771;DHT22;42641;59.794;17.616;2024-01-15T08:54:17;-3.70;99.90
56771;DHT22;42641;59.794;17.616;2024-01-15T08:56:44;-3.70;99.90
56771;DHT22;42641;59.794;17.616;2024-01-15T08:59:10;-3.70;99.90
56771;DHT22;42641;59.794;17.616;2024-01-15T09:01:38;-3.70;99.90
56771;DHT22;42641;59.794;17.616;2024-01-15T09:04:06;-3.70;99.90
56771;DHT22;42641;59.794;17.616;2024-01-15T09:06:32;-3.60;99.90
56771;DHT22;42641;59.794;17.616;2024-01-15T09:08:59;-3.60;99.90
56771;DHT22;42641;59.794;17.616;2024-01-15T09:11:26;-3.60;99.90
56771;DHT22;42641;59.794;17.616;2024-01-15T09:13:52;-3.60;99.90
56771;DHT22;42641;59.794;17.616;2024-01-15T09:16:19;-3.70;99.90
56771;DHT22;42641;59.794;17.616;2024-01-15T09:18:46;-3.70;99.90
56771;DHT22;42641;59.794;17.616;2024-01-15T09:21:13;-3.70;99.90
56771;DHT22;42641;59.794;17.616;2024-01-15T09:23:39;-3.70;99.90
56771;DHT22;42641;59.794;17.616;2024-01-15T09:26:08;-3.60;99.90
56771;DHT22;42641;59.794;17.616;2024-01-15T09:28:35;-3.60;99.90
56771;DHT22;42641;59.794;17.616;2024-01-15T09:31:01;-3.60;99.90
56771;DHT22;42641;59.794;17.616;2024-01-15T09:33:28;-3.60;99.90
56771;DHT22;42641;59.794;17.616;2024-01-15T09:35:54;-3.60;99.90
56771;DHT22;42641;59.794;17.616;2024-01-15T09:38:21;-3.60;99.90
56771;DHT22;42641;59.794;17.616;2024-01-15T09:40:47;-3.60;99.90
56771;DHT22;42641;59.794;17.616;2024-01-15T09:43:15;-3.60;99.90
56771;DHT22;42641;59.794;17.616;2024-01-15T09:45:42;-3.60;99.90
56771;DHT22;42641;59.794;17.616;2024-01-15T09:48:09;-3.60;99.90
56771;DHT22;42641;59.794;17.616;2024-01-15T09:50:36;-3.60;99.90
56771;DHT22;42641;59.794;17.616;2024-01-15T09:53:05;-3.50;99.90
56771;DHT22;42641;59.794;17.616;2024-01-15T09:55:32;-3.50;99.90
56771;DHT22;42641;59.794;17.616;2024-01-15T09:58:00;-3.40;99.90
56771;DHT22;42641;59.794;17.616;2024-01-15T10:00:29;-3.50;99.90
56771;DHT22;42641;59.794;17.616;2024-01-15T10:02:57;-3.40;99.90
56771;DHT22;42641;59.794;17.616;2024-01-15T10:05:26;-3.50;99.90
56771;DHT22;42641;59.794;17.616;2024-01-15T10:07:53;-3.50;99.90
56771;DHT22;42641;59.794;17.616;2024-01-15T10:10:21;-3.50;99.90
56771;DHT22;42641;59.794;17.616;2024-01-15T10:12:49;-3.50;99.90
56771;DHT22;42641;59.794;17.616;2024-01-15T10:15:16;-3.50;99.90
56771;DHT22;42641;59.794;17.616;2024-01-15T10:17:43;-3.50;99.90
56771;DHT22;42641;59.794;17.616;2024-01-15T10:20:11;-3.50;99.90
56771;DHT22;42641;59.794;17.616;2024-01-15T10:22:41;-3.60;99.90
56771;DHT22;42641;59.794;17.616;2024-01-15T10:25:15;-3.50;99.90
56771;DHT22;42641;59.794;17.616;2024-01-15T10:27:43;-3.60;99.90
56771;DHT22;42641;59.794;17.616;2024-01-15T10:30:10;-3.60;99.90
56771;DHT22;42641;59.794;17.616;2024-01-15T10:32:37;-3.60;99.90
56771;DHT22;42641;59.794;17.616;2024-01-15T10:35:03;-3.50;99.90
56771;DHT22;42641;59.794;17.616;2024-01-15T10:37:33;-3.50;99.90
56771;DHT22;42641;59.794;17.616;2024-01-15T10:40:02;-3.60;99.90
56771;DHT22;42641;59.794;17.616;2024-01-15T10:42:31;-3.60;99.90
56771;DHT22;42641;59.794;17.616;2024-01-15T10:44:57;-3.60;99.90
56771;DHT22;42641;59.794;17.616;2024-01-15T10:47:24;-3.60;99.90
56771;DHT22;42641;59.794;17.616;2024-01-15T10:49:51;-3.60;99.90
56771;DHT22;42641;59.794;17.616;2024-01-15T10:52:18;-3.70;99.90
56771;DHT22;42641;59.794;17.616;2024-01-15T10:54:45;-3.60;99.90
56771;DHT22;42641;59.794;17.616;2024-01-15T10:57:13;-3.60;99.90
56771;DHT22;42641;59.794;17.616;2024-01-15T10:59:41;-3.60;99.90
56771;DHT22;42641;59.794;17.616;2024-01-15T11:02:08;-3.60;99.90
56771;DHT22;42641;59.794;17.616;2024-01-15T11:04:34;-3.60;99.90
56771;DHT22;42641;59.794;17.616;2024-01-15T11:07:02;-3.60;99.90
56771;DHT22;42641;59.794;17.616;2024-01-15T11:09:29;-3.60;99.90
56771;DHT22;42641;59.794;17.616;2024-01-15T11:12:11;-3.60;99.90
56771;DHT22;42641;59.794;17.616;2024-01-15T11:14:51;-3.50;99.90
56771;DHT22;42641;59.794;17.616;2024-01-15T11:17:20;-3.50;99.90
56771;DHT22;42641;59.794;17.616;2024-01-15T11:19:48;-3.40;99.90
56771;DHT22;42641;59.794;17.616;2024-01-15T11:25:03;-3.40;99.90
56771;DHT22;42641;59.794;17.616;2024-01-15T11:27:42;-3.40;99.90
56771;DHT22;42641;59.794;17.616;2024-01-15T11:30:10;-3.40;99.90
56771;DHT22;42641;59.794;17.616;2024-01-15T11:32:37;-3.50;99.90
56771;DHT22;42641;59.794;17.616;2024-01-15T11:35:08;-3.50;99.90
56771;DHT22;42641;59.794;17.616;2024-01-15T11:40:21;-3.40;99.90
56771;DHT22;42641;59.794;17.616;2024-01-15T11:42:49;-3.40;99.90
56771;DHT22;42641;59.794;17.616;2024-01-15T11:45:19;-3.40;99.90
56771;DHT22;42641;59.794;17.616;2024-01-15T11:48:06;-3.50;99.90
56771;DHT22;42641;59.794;17.616;2024-01-15T11:50:35;-3.60;99.90
56771;DHT22;42641;59.794;17.616;2024-01-15T11:53:03;-3.50;99.90
56771;DHT22;42641;59.794;17.616;2024-01-15T11:55:36;-3.60;99.90
56771;DHT22;42641;59.794;17.616;2024-01-15T11:58:08;-3.50;99.90
56771;DHT22;42641;59.794;17.616;2024-01-15T12:00:47;-3.50;99.90
56771;DHT22;42641;59.794;17.616;2024-01-15T12:03:13;-3.40;99.90
56771;DHT22;42641;59.794;17.616;2024-01-15T12:05:40;-3.40;99.90
56771;DHT22;42641;59.794;17.616;2024-01-15T12:08:08;-3.40;99.90
56771;DHT22;42641;59.794;17.616;2024-01-15T12:10:41;-3.40;99.90
56771;DHT22;42641;59.794;17.616;2024-01-15T12:13:14;-3.40;99.90
56771;DHT22;42641;59.794;17.616;2024-01-15T12:15:42;-3.30;99.90
56771;DHT22;42641;59.794;17.616;2024-01-15T12:18:11;-3.30;99.90
56771;DHT22;42641;59.794;17.616;2024-01-15T12:20:37;-3.40;99.90
56771;DHT22;42641;59.794;17.616;2024-01-15T12:23:04;-3.40;99.90
56771;DHT22;42641;59.794;17.616;2024-01-15T12:25:30;-3.40;99.90
56771;DHT22;42641;59.794;17.616;2024-01-15T12:27:58;-3.40;99.90
56771;DHT22;42641;59.794;17.616;2024-01-15T12:30:29;-3.40;99.90
56771;DHT22;42641;59.794;17.616;2024-01-15T12:32:57;-3.40;99.90
56771;DHT22;42641;59.794;17.616;2024-01-15T12:35:24;-3.50;99.90
56771;DHT22;42641;59.794;17.616;2024-01-15T12:37:56;-3.50;99.90
56771;DHT22;42641;59.794;17.616;2024-01-15T12:40:23;-3.40;99.90
56771;DHT22;42641;59.794;17.616;2024-01-15T12:42:50;-3.40;99.90
56771;DHT22;42641;59.794;17.616;2024-01-15T12:45:16;-3.40;99.90
56771;DHT22;42641;59.794;17.616;2024-01-15T12:47:43;-3.40;99.90
56771;DHT22;42641;59.794;17.616;2024-01-15T12:50:12;-3.50;99.90
56771;DHT22;42641;59.794;17.616;2024-01-15T12:52:42;-3.60;99.90
56771;DHT22;42641;59.794;17.616;2024-01-15T12:55:09;-3.60;99.90
56771;DHT22;42641;59.794;17.616;2024-01-15T12:57:36;-3.60;99.90
56771;DHT22;42641;59.794;17.616;2024-01-15T13:00:04;-3.60;99.90
56771;DHT22;42641;59.794;17.616;2024-01-15T13:02:39;-3.60;99.90
56771;DHT22;42641;59.794;17.616;2024-01-15T13:05:09;-3.60;99.90
56771;DHT22;42641;59.794;17.616;2024-01-15T13:07:37;-3.50;99.90
56771;DHT22;42641;59.794;17.616;2024-01-15T13:10:04;-3.50;99.90
56771;DHT22;42641;59.794;17.616;2024-01-15T13:12:33;-3.50;99.90
56771;DHT22;42641;59.794;17.616;2024-01-15T13:15:00;-3.50;99.90
56771;DHT22;42641;59.794;17.616;2024-01-15T13:17:29;-3.50;99.90
56771;DHT22;42641;59.794;17.616;2024-01-15T13:19:56;-3.60;99.90
56771;DHT22;42641;59.794;17.616;2024-01-15T13:22:22;-3.70;99.90
56771;DHT22;42641;59.794;17.616;2024-01-15T13:24:49;-3.80;99.90
56771;DHT22;42641;59.794;17.616;2024-01-15T13:27:15;-3.80;99.90
56771;DHT22;42641;59.794;17.616;2024-01-15T13:29:43;-3.90;99.90
56771;DHT22;42641;59.794;17.616;2024-01-15T13:32:13;-3.90;99.90
56771;DHT22;42641;59.794;17.616;2024-01-15T13:34:43;-3.90;99.90
56771;DHT22;42641;59.794;17.616;2024-01-15T13:37:10;-3.90;99.90
56771;DHT22;42641;59.794;17.616;2024-01-15T13:39:36;-3.90;99.90
56771;DHT22;42641;59.794;17.616;2024-01-15T13:42:03;-4.00;99.90
56771;DHT22;42641;59.794;17.616;2024-01-15T13:44:29;-4.00;99.90
56771;DHT22;42641;59.794;17.616;2024-01-15T13:46:56;-3.90;99.90
56771;DHT22;42641;59.794;17.616;2024-01-15T13:49:23;-4.10;99.90
56771;DHT22;42641;59.794;17.616;2024-01-15T13:51:50;-4.30;99.90
56771;DHT22;42641;59.794;17.616;2024-01-15T13:54:16;-4.60;99.90
56771;DHT22;42641;59.794;17.616;2024-01-15T13:56:43;-4.60;99.90
56771;DHT22;42641;59.794;17.616;2024-01-15T13:59:09;-4.80;99.90
56771;DHT22;42641;59.794;17.616;2024-01-15T14:01:35;-4.90;99.90
56771;DHT22;42641;59.794;17.616;2024-01-15T14:04:02;-5.00;99.90
56771;DHT22;42641;59.794;17.616;2024-01-15T14:06:28;-5.00;99.90
56771;DHT22;42641;59.794;17.616;2024-01-15T14:08:55;-5.00;99.90
56771;DHT22;42641;59.794;17.616;2024-01-15T14:11:21;-5.00;99.90
56771;DHT22;42641;59.794;17.616;2024-01-15T14:13:49;-5.00;99.90
56771;DHT22;42641;59.794;17.616;2024-01-15T14:16:15;-5.10;99.90
56771;DHT22;42641;59.794;17.616;2024-01-15T14:18:41;-5.20;99.90
56771;DHT22;42641;59.794;17.616;2024-01-15T14:21:08;-5.20;99.90
56771;DHT22;42641;59.794;17.616;2024-01-15T14:23:34;-5.20;99.90
56771;DHT22;42641;59.794;17.616;2024-01-15T14:26:01;-5.20;99.90
56771;DHT22;42641;59.794;17.616;2024-01-15T14:28:27;-5.20;99.90
56771;DHT22;42641;59.794;17.616;2024-01-15T14:30:53;-5.20;99.90
56771;DHT22;42641;59.794;17.616;2024-01-15T14:33:22;-5.30;99.90
56771;DHT22;42641;59.794;17.616;2024-01-15T14:35:48;-5.40;99.90
56771;DHT22;42641;59.794;17.616;2024-01-15T14:38:15;-5.40;99.90
56771;DHT22;42641;59.794;17.616;2024-01-15T14:40:41;-5.40;99.90
56771;DHT22;42641;59.794;17.616;2024-01-15T14:43:08;-5.50;99.90
56771;DHT22;42641;59.794;17.616;2024-01-15T14:45:34;-5.60;99.90
56771;DHT22;42641;59.794;17.616;2024-01-15T14:48:01;-5.60;99.90
56771;DHT22;42641;59.794;17.616;2024-01-15T14:50:27;-5.60;99.90
56771;DHT22;42641;59.794;17.616;2024-01-15T14:52:54;-5.60;99.90
56771;DHT22;42641;59.794;17.616;2024-01-15T14:55:20;-5.70;99.90
56771;DHT22;42641;59.794;17.616;2024-01-15T14:57:50;-5.80;99.90
56771;DHT22;42641;59.794;17.616;2024-01-15T15:00:17;-5.70;99.90
56771;DHT22;42641;59.794;17.616;2024-01-15T15:02:43;-5.80;99.90
56771;DHT22;42641;59.794;17.616;2024-01-15T15:05:10;-5.80;99.90
56771;DHT22;42641;59.794;17.616;2024-01-15T15:07:36;-5.90;99.90
56771;DHT22;42641;59.794;17.616;2024-01-15T15:10:03;-5.80;99.90
56771;DHT22;42641;59.794;17.616;2024-01-15T15:12:32;-5.80;99.90
56771;DHT22;42641;59.794;17.616;2024-01-15T15:14:59;-5.90;99.90
56771;DHT22;42641;59.794;17.616;2024-01-15T15:17:26;-6.00;99.90
56771;DHT22;42641;59.794;17.616;2024-01-15T15:19:52;-5.90;99.90